createdAt,value
2023-04-04T00:01:50.440Z,102987.47
2023-04-04T00:04:17.707Z,103019.59
2023-04-04T00:06:45.760Z,103006.66
2023-04-04T00:09:12.910Z,103012.69
2023-04-04T00:11:41.047Z,102963.28
2023-04-04T00:14:08.074Z,102988.47
2023-04-04T00:16:34.518Z,102931.16
2023-04-04T00:19:00.979Z,102988.44
2023-04-04T00:21:27.585Z,102998.00
2023-04-04T00:23:54.594Z,102965.03
2023-04-04T00:26:21.826Z,102997.13
2023-04-04T00:28:51.295Z,103002.38
2023-04-04T00:31:17.853Z,103008.41
2023-04-04T00:33:44.375Z,102985.72
2023-04-04T00:36:11.536Z,102967.50
2023-04-04T00:38:38.149Z,102985.72
2023-04-04T00:41:06.607Z,102975.38
2023-04-04T00:43:35.260Z,102995.28
2023-04-04T00:46:01.976Z,102991.81
2023-04-04T00:48:28.728Z,102984.03
2023-04-04T00:50:55.339Z,102991.88
2023-04-04T00:53:22.133Z,102992.81
2023-04-04T00:55:48.920Z,102983.22
2023-04-04T00:58:15.563Z,102945.03
2023-04-04T01:00:42.283Z,102982.34
2023-04-04T01:03:12.815Z,102982.38
2023-04-04T01:05:40.090Z,102964.97
2023-04-04T01:08:07.058Z,102973.66
2023-04-04T01:10:34.620Z,102953.69
2023-04-04T01:13:01.798Z,102976.22
2023-04-04T01:15:28.762Z,102966.63
2023-04-04T01:17:59.429Z,102951.00
2023-04-04T01:20:29.562Z,102970.91
2023-04-04T01:22:56.758Z,102962.97
2023-04-04T01:25:30.279Z,102954.28
2023-04-04T01:27:56.737Z,102947.38
2023-04-04T01:30:25.851Z,102945.66
2023-04-04T01:33:15.216Z,102942.06
2023-04-04T01:35:57.282Z,102937.72
2023-04-04T01:38:57.954Z,102931.63
2023-04-04T01:41:26.120Z,102930.81
2023-04-04T01:43:52.703Z,102883.97
2023-04-04T01:46:21.994Z,102940.44
2023-04-04T01:48:48.425Z,102933.44
2023-04-04T01:51:15.393Z,102923.94
2023-04-04T01:53:44.540Z,102919.63
2023-04-04T01:56:14.465Z,102932.59
2023-04-04T01:58:41.439Z,102916.97
2023-04-04T02:01:08.015Z,102939.53
2023-04-04T02:03:34.487Z,102934.31
2023-04-04T02:06:01.475Z,102927.34
2023-04-04T02:08:34.060Z,102931.69
2023-04-04T02:11:01.580Z,102927.31
2023-04-04T02:13:30.869Z,102930.81
2023-04-04T02:15:57.289Z,102910.78
2023-04-04T02:18:24.570Z,102918.59
2023-04-04T02:20:57.768Z,102901.25
2023-04-04T02:23:28.763Z,102921.25
2023-04-04T02:25:55.279Z,102916.88
2023-04-04T02:28:22.601Z,102919.50
2023-04-04T02:30:49.048Z,102883.84
2023-04-04T02:33:15.751Z,102829.31
2023-04-04T02:35:42.245Z,102896.06
2023-04-04T02:38:08.740Z,102919.41
2023-04-04T02:40:39.452Z,102897.59
2023-04-04T02:43:06.687Z,102887.19
2023-04-04T02:45:36.595Z,102889.75
2023-04-04T02:48:03.782Z,102880.97
2023-04-04T02:50:30.217Z,102911.34
2023-04-04T02:53:01.346Z,102926.19
2023-04-04T02:55:28.696Z,102907.88
2023-04-04T02:57:55.877Z,102905.19
2023-04-04T03:00:22.645Z,102909.53
2023-04-04T03:02:56.477Z,102915.69
2023-04-04T03:05:27.214Z,102903.47
2023-04-04T03:07:57.746Z,102926.03
2023-04-04T03:10:32.115Z,102911.19
2023-04-04T03:12:59.373Z,102885.16
2023-04-04T03:15:29.575Z,102903.28
2023-04-04T03:17:57.763Z,102917.97
2023-04-04T03:20:24.628Z,102909.25
2023-04-04T03:22:51.310Z,102906.69
2023-04-04T03:25:18.385Z,102914.47
2023-04-04T03:27:47.624Z,102902.22
2023-04-04T03:30:14.115Z,102905.75
2023-04-04T03:32:40.520Z,102908.28
2023-04-04T03:35:07.644Z,102903.03
2023-04-04T03:37:35.538Z,102902.13
2023-04-04T03:40:02.845Z,102869.13
2023-04-04T03:42:34.568Z,102874.22
2023-04-04T03:45:01.080Z,102877.63
2023-04-04T03:47:27.698Z,102888.88
2023-04-04T03:49:56.240Z,102887.13
2023-04-04T03:52:22.707Z,102898.34
2023-04-04T03:54:49.493Z,102875.78
2023-04-04T03:57:16.753Z,102851.41
2023-04-04T03:59:46.164Z,102849.53
2023-04-04T04:02:12.700Z,102892.91
2023-04-04T04:04:39.348Z,102886.69
2023-04-04T04:07:05.899Z,102872.81
2023-04-04T04:09:32.367Z,102877.84
2023-04-04T04:11:58.995Z,102883.94
2023-04-04T04:14:25.467Z,102873.47
2023-04-04T04:16:53.350Z,102883.97
2023-04-04T04:19:19.746Z,102880.44
2023-04-04T04:21:46.327Z,102889.97
2023-04-04T04:24:12.822Z,102889.00
2023-04-04T04:26:39.236Z,102887.25
2023-04-04T04:29:05.981Z,102893.31
2023-04-04T04:31:32.482Z,102874.97
2023-04-04T04:33:58.930Z,102880.16
2023-04-04T04:36:25.503Z,102881.09
2023-04-04T04:38:52.253Z,102855.06
2023-04-04T04:41:18.692Z,102883.63
2023-04-04T04:43:45.097Z,102874.19
2023-04-04T04:46:11.575Z,102887.16
2023-04-04T04:48:38.137Z,102872.44
2023-04-04T04:51:04.639Z,102899.41
2023-04-04T04:53:31.410Z,102891.53
2023-04-04T04:55:57.901Z,102899.41
2023-04-04T04:58:25.861Z,102896.81
2023-04-04T05:00:59.843Z,102897.72
2023-04-04T05:03:26.581Z,102866.47
2023-04-04T05:05:53.319Z,102883.72
2023-04-04T05:08:19.763Z,102885.56
2023-04-04T05:10:46.831Z,102889.88
2023-04-04T05:13:14.361Z,102881.22
2023-04-04T05:15:40.831Z,102872.59
2023-04-04T05:18:07.850Z,102868.19
2023-04-04T05:20:37.522Z,102886.25
2023-04-04T05:23:04.709Z,102854.19
2023-04-04T05:25:31.170Z,102889.66
2023-04-04T05:28:00.345Z,102894.84
2023-04-04T05:30:26.812Z,102891.22
2023-04-04T05:32:53.356Z,102879.00
2023-04-04T05:35:20.021Z,102866.78
2023-04-04T05:37:46.544Z,102885.69
2023-04-04T05:40:14.567Z,102876.94
2023-04-04T05:42:42.738Z,102892.41
2023-04-04T05:45:10.389Z,102882.72
2023-04-04T05:47:36.899Z,102870.56
2023-04-04T05:50:04.233Z,102877.38
2023-04-04T05:52:31.237Z,102897.91
2023-04-04T05:54:58.427Z,102900.31
2023-04-04T05:57:25.414Z,102912.34
2023-04-04T05:59:53.564Z,102899.84
2023-04-04T06:02:20.132Z,102793.94
2023-04-04T06:04:46.890Z,102875.97
2023-04-04T06:07:13.872Z,102890.44
2023-04-04T06:09:41.170Z,102879.16
2023-04-04T06:12:09.245Z,102885.69
2023-04-04T06:14:36.382Z,102890.84
2023-04-04T06:17:04.635Z,102904.53
2023-04-04T06:19:34.053Z,102882.78
2023-04-04T06:22:00.591Z,102907.84
2023-04-04T06:24:27.269Z,102895.66
2023-04-04T06:26:53.677Z,102875.63
2023-04-04T06:29:20.246Z,102906.72
2023-04-04T06:31:46.952Z,102882.25
2023-04-04T06:34:13.870Z,102898.66
2023-04-04T06:36:40.355Z,102872.53
2023-04-04T06:39:06.925Z,102899.06
2023-04-04T06:41:36.438Z,102895.44
2023-04-04T06:44:02.849Z,102880.38
2023-04-04T06:46:31.663Z,102898.94
2023-04-04T06:48:58.146Z,102894.75
2023-04-04T06:51:25.214Z,102880.03
2023-04-04T06:53:51.770Z,102892.00
2023-04-04T06:56:18.203Z,102890.91
2023-04-04T06:58:44.767Z,102893.28
2023-04-04T07:01:11.760Z,102888.59
2023-04-04T07:03:38.682Z,102879.03
2023-04-04T07:06:05.663Z,102879.34
2023-04-04T07:08:36.201Z,102890.50
2023-04-04T07:11:04.422Z,102885.16
2023-04-04T07:13:30.932Z,102893.59
2023-04-04T07:15:57.413Z,102877.63
2023-04-04T07:18:24.569Z,102885.19
2023-04-04T07:20:51.199Z,102857.19
2023-04-04T07:23:17.635Z,102865.34
2023-04-04T07:25:44.615Z,102887.88
2023-04-04T07:28:13.301Z,102889.50
2023-04-04T07:30:40.329Z,102874.31
2023-04-04T07:33:07.643Z,102881.00
2023-04-04T07:35:34.896Z,102869.97
2023-04-04T07:38:01.553Z,102832.56
2023-04-04T07:40:28.045Z,102876.75
2023-04-04T07:42:54.615Z,102875.59
2023-04-04T07:45:24.000Z,102879.50
2023-04-04T07:47:50.740Z,102884.69
2023-04-04T07:50:17.270Z,102850.88
2023-04-04T07:52:51.181Z,102881.16
2023-04-04T07:55:19.652Z,102833.06
2023-04-04T07:57:47.080Z,102851.00
2023-04-04T08:00:14.474Z,102882.03
2023-04-04T08:02:43.193Z,102855.19
2023-04-04T08:05:10.029Z,102837.78
2023-04-04T08:07:36.646Z,102760.03
2023-04-04T08:10:03.635Z,102861.06
2023-04-04T08:12:30.468Z,102851.81
2023-04-04T08:14:57.329Z,102858.13
2023-04-04T08:17:25.772Z,102841.63
2023-04-04T08:19:54.900Z,102835.19
2023-04-04T08:22:21.444Z,102857.34
2023-04-04T08:24:47.908Z,102792.44
2023-04-04T08:27:16.036Z,102844.28
2023-04-04T08:29:42.536Z,102859.97
2023-04-04T08:32:09.631Z,102834.94
2023-04-04T08:34:36.492Z,102853.63
2023-04-04T08:37:05.013Z,102853.97
2023-04-04T08:39:31.696Z,102849.97
2023-04-04T08:42:07.388Z,102821.78
2023-04-04T08:44:34.896Z,102811.38
2023-04-04T08:47:05.845Z,102830.03
2023-04-04T08:49:37.452Z,102854.91
2023-04-04T08:52:06.341Z,102849.47
2023-04-04T08:54:34.406Z,102843.13
2023-04-04T08:57:01.768Z,102845.78
2023-04-04T08:59:28.898Z,102812.44
2023-04-04T09:02:15.661Z,102852.59
2023-04-04T09:04:51.363Z,102820.94
2023-04-04T09:07:25.909Z,102804.75
2023-04-04T09:09:53.817Z,102849.94
2023-04-04T09:12:22.789Z,102841.88
2023-04-04T09:14:52.204Z,102835.34
2023-04-04T09:17:21.784Z,102841.44
2023-04-04T09:19:48.215Z,102837.72
2023-04-04T09:22:17.097Z,102801.34
2023-04-04T09:24:43.839Z,102833.16
2023-04-04T09:27:14.939Z,102824.09
2023-04-04T09:29:45.177Z,102833.81
2023-04-04T09:32:16.044Z,102817.16
2023-04-04T09:34:45.580Z,102793.38
2023-04-04T09:37:16.760Z,102810.88
2023-04-04T09:39:44.870Z,102813.69
2023-04-04T09:42:12.292Z,102810.25
2023-04-04T09:44:39.533Z,102806.50
2023-04-04T09:50:05.701Z,102812.88
2023-04-04T09:52:38.957Z,102817.03
2023-04-04T09:55:06.652Z,102822.53
2023-04-04T09:57:35.816Z,102818.78
2023-04-04T10:00:09.276Z,102786.19
2023-04-04T10:02:38.859Z,102803.63
2023-04-04T10:05:07.039Z,102798.41
2023-04-04T10:07:34.906Z,102781.56
2023-04-04T10:10:04.883Z,102795.16
2023-04-04T10:12:31.465Z,102797.63
2023-04-04T10:15:01.426Z,102789.63
2023-04-04T10:17:31.941Z,102727.94
2023-04-04T10:20:03.852Z,102790.09
2023-04-04T10:22:32.338Z,102798.34
2023-04-04T10:24:59.131Z,102752.47
2023-04-04T10:27:26.645Z,102778.59
2023-04-04T10:29:53.314Z,102783.19
2023-04-04T10:32:38.333Z,102791.31
2023-04-04T10:35:14.427Z,102786.97
2023-04-04T10:37:45.826Z,102779.94
2023-04-04T10:40:17.422Z,102761.88
2023-04-04T10:42:47.875Z,102722.66
2023-04-04T10:45:21.313Z,102735.63
2023-04-04T10:47:48.551Z,102779.38
2023-04-04T10:50:15.876Z,102772.63
2023-04-04T10:52:44.790Z,102770.91
2023-04-04T10:55:13.142Z,102772.38
2023-04-04T10:57:45.395Z,102770.06
2023-04-04T11:00:18.503Z,102761.03
2023-04-04T11:02:51.552Z,102756.28
2023-04-04T11:05:34.107Z,102765.78
2023-04-04T11:08:08.288Z,102763.38
2023-04-04T11:10:37.782Z,102729.50
2023-04-04T11:13:16.760Z,102760.06
2023-04-04T11:16:05.224Z,102759.69
2023-04-04T11:21:07.304Z,102742.69
2023-04-04T11:23:49.083Z,102745.19
2023-04-04T11:26:27.876Z,102742.72
2023-04-04T11:29:03.678Z,102704.66
2023-04-04T11:31:35.125Z,102718.84
2023-04-04T11:34:09.753Z,102727.03
2023-04-04T11:36:36.602Z,102726.41
2023-04-04T11:39:14.758Z,102721.78
2023-04-04T11:41:57.239Z,102659.06
2023-04-04T11:44:30.264Z,102717.72
2023-04-04T11:47:03.192Z,102658.00
2023-04-04T11:49:35.306Z,102691.47
2023-04-04T11:52:10.112Z,102708.97
2023-04-04T11:54:41.907Z,102709.19
2023-04-04T11:57:11.977Z,102708.63
2023-04-04T11:59:42.934Z,102702.34
2023-04-04T12:02:10.322Z,102672.97
2023-04-04T12:04:38.855Z,102696.03
2023-04-04T12:07:07.742Z,102688.75
2023-04-04T12:09:35.981Z,102662.81
2023-04-04T12:12:03.538Z,102606.81
2023-04-04T12:14:32.874Z,102668.78
2023-04-04T12:17:00.005Z,102684.31
2023-04-04T12:19:28.853Z,102682.81
2023-04-04T12:21:57.673Z,102641.28
2023-04-04T12:24:24.552Z,102654.97
2023-04-04T12:26:53.033Z,102652.78
2023-04-04T12:29:22.766Z,102686.59
2023-04-04T12:31:50.776Z,102662.38
2023-04-04T12:34:27.622Z,102676.53
2023-04-04T12:36:58.675Z,102681.88
2023-04-04T12:39:29.441Z,102674.69
2023-04-04T12:42:06.239Z,102675.47
2023-04-04T12:44:39.787Z,102673.53
2023-04-04T12:47:07.970Z,102661.47
2023-04-04T12:49:51.112Z,102648.88
2023-04-04T12:52:20.940Z,102664.16
2023-04-04T12:54:50.892Z,102665.69
2023-04-04T12:57:25.042Z,102652.38
2023-04-04T12:59:54.458Z,102654.56
2023-04-04T13:02:23.206Z,102619.06
2023-04-04T13:04:55.554Z,102650.81
2023-04-04T13:07:29.535Z,102619.19
2023-04-04T13:09:58.924Z,102636.56
2023-04-04T13:12:47.677Z,102636.91
2023-04-04T13:15:14.325Z,102624.34
2023-04-04T13:17:46.137Z,102620.44
2023-04-04T13:20:14.324Z,102586.25
2023-04-04T13:22:42.308Z,102592.38
2023-04-04T13:25:10.795Z,102611.03
2023-04-04T13:27:38.549Z,102603.84
2023-04-04T13:30:10.113Z,102553.75
2023-04-04T13:32:38.256Z,102613.44
2023-04-04T13:35:05.272Z,102602.03
2023-04-04T13:37:31.689Z,102603.31
2023-04-04T13:39:58.144Z,102601.63
2023-04-04T13:42:30.000Z,102593.47
2023-04-04T13:44:57.186Z,102599.13
2023-04-04T13:47:27.133Z,102605.00
2023-04-04T13:49:54.873Z,102590.41
2023-04-04T13:52:22.147Z,102595.25
2023-04-04T13:54:48.549Z,102596.31
2023-04-04T13:57:14.986Z,102583.28
2023-04-04T13:59:41.433Z,102553.09
2023-04-04T14:02:11.982Z,102578.09
2023-04-04T14:04:38.631Z,102561.78
2023-04-04T14:07:05.133Z,102563.47
2023-04-04T14:09:31.721Z,102545.63
2023-04-04T14:11:58.572Z,102540.75
2023-04-04T14:14:25.197Z,102487.81
2023-04-04T14:16:51.873Z,102528.19
2023-04-04T14:19:18.317Z,102555.47
2023-04-04T14:21:44.749Z,102540.69
2023-04-04T14:24:11.191Z,102541.00
2023-04-04T14:26:37.756Z,102537.75
2023-04-04T14:29:04.149Z,102546.78
2023-04-04T14:31:32.438Z,102541.72
2023-04-04T14:33:59.064Z,102546.44
2023-04-04T14:36:26.121Z,102516.91
2023-04-04T14:38:52.650Z,102515.16
2023-04-04T14:41:19.099Z,102526.97
2023-04-04T14:43:45.771Z,102531.59
2023-04-04T14:46:12.424Z,102538.69
2023-04-04T14:48:38.903Z,102531.75
2023-04-04T14:51:05.750Z,102523.59
2023-04-04T14:53:32.306Z,102503.56
2023-04-04T14:55:58.760Z,102525.38
2023-04-04T14:58:25.336Z,102495.91
2023-04-04T15:00:52.185Z,102504.31
2023-04-04T15:03:18.670Z,102524.75
2023-04-04T15:05:45.442Z,102498.53
2023-04-04T15:08:11.952Z,102493.63
2023-04-04T15:10:38.743Z,102464.25
2023-04-04T15:13:05.771Z,102454.94
2023-04-04T15:15:32.525Z,102481.31
2023-04-04T15:17:59.069Z,102500.53
2023-04-04T15:20:25.484Z,102505.91
2023-04-04T15:22:51.924Z,102500.22
2023-04-04T15:25:18.791Z,102471.66
2023-04-04T15:27:45.410Z,102465.38
2023-04-04T15:30:13.338Z,102514.84
2023-04-04T15:32:39.791Z,102496.66
2023-04-04T15:35:15.514Z,102497.56
2023-04-04T15:37:41.884Z,102476.09
2023-04-04T15:40:09.209Z,102511.84
2023-04-04T15:42:36.153Z,102481.94
2023-04-04T15:45:02.920Z,102492.13
2023-04-04T15:47:29.340Z,102486.91
2023-04-04T15:49:55.906Z,102490.25
2023-04-04T15:52:22.322Z,102491.53
2023-04-04T15:54:48.761Z,102484.03
2023-04-04T15:57:15.199Z,102486.59
2023-04-04T15:59:41.656Z,102478.69
2023-04-04T16:02:08.042Z,102479.19
2023-04-04T16:04:34.524Z,102481.78
2023-04-04T16:07:01.215Z,102492.19
2023-04-04T16:09:27.756Z,102484.78
2023-04-04T16:11:55.922Z,102496.22
2023-04-04T16:14:23.505Z,102444.03
2023-04-04T16:16:49.973Z,102473.41
2023-04-04T16:19:17.785Z,102460.78
2023-04-04T16:21:44.480Z,102470.34
2023-04-04T16:24:15.424Z,102498.75
2023-04-04T16:26:47.447Z,102477.88
2023-04-04T16:29:16.206Z,102456.06
2023-04-04T16:31:42.806Z,102480.88
2023-04-04T16:34:09.320Z,102479.06
2023-04-04T16:36:36.523Z,102471.28
2023-04-04T16:39:03.217Z,102453.38
2023-04-04T16:41:30.066Z,102445.41
2023-04-04T16:43:59.449Z,102467.56
2023-04-04T16:46:28.765Z,102480.44
2023-04-04T16:48:55.311Z,102471.00
2023-04-04T16:51:22.382Z,102479.38
2023-04-04T16:53:48.904Z,102478.19
2023-04-04T16:56:15.906Z,102482.94
2023-04-04T16:58:45.006Z,102479.19
2023-04-04T17:01:15.572Z,102485.84
2023-04-04T17:03:42.133Z,102472.28
2023-04-04T17:06:11.868Z,102473.88
2023-04-04T17:08:38.330Z,102474.25
2023-04-04T17:11:04.897Z,102466.94
2023-04-04T17:13:31.379Z,102478.81
2023-04-04T17:15:58.245Z,102460.59
2023-04-04T17:18:24.706Z,102479.19
2023-04-04T17:20:52.163Z,102434.00
2023-04-04T17:23:18.843Z,102463.06
2023-04-04T17:25:45.814Z,102444.69
2023-04-04T17:28:12.756Z,102477.97
2023-04-04T17:30:39.727Z,102439.50
2023-04-04T17:33:06.683Z,102463.69
2023-04-04T17:35:33.138Z,102466.50
2023-04-04T17:37:59.569Z,102452.47
2023-04-04T17:40:25.935Z,102463.09
2023-04-04T17:42:52.393Z,102458.69
2023-04-04T17:45:19.361Z,102473.03
2023-04-04T17:47:46.224Z,102465.66
2023-04-04T17:50:12.715Z,102431.00
2023-04-04T17:52:39.114Z,102465.84
2023-04-04T17:55:06.630Z,102468.81
2023-04-04T17:57:33.517Z,102468.41
2023-04-04T18:00:00.727Z,102459.69
2023-04-04T18:02:27.353Z,102438.44
2023-04-04T18:04:53.951Z,102462.03
2023-04-04T18:07:20.779Z,102463.34
2023-04-04T18:09:47.367Z,102448.38
2023-04-04T18:12:13.993Z,102467.81
2023-04-04T18:14:40.390Z,102463.09
2023-04-04T18:17:07.378Z,102464.38
2023-04-04T18:19:34.292Z,102461.34
2023-04-04T18:22:02.000Z,102465.50
2023-04-04T18:24:28.720Z,102438.47
2023-04-04T18:26:56.579Z,102464.53
2023-04-04T18:29:25.637Z,102467.66
2023-04-04T18:31:52.579Z,102468.03
2023-04-04T18:34:19.337Z,102454.03
2023-04-04T18:36:48.042Z,102453.63
2023-04-04T18:39:17.421Z,102454.97
2023-04-04T18:41:45.890Z,102472.44
2023-04-04T18:44:12.598Z,102468.34
2023-04-04T18:46:39.353Z,102474.84
2023-04-04T18:49:05.956Z,102453.59
2023-04-04T18:51:33.327Z,102476.41
2023-04-04T18:53:59.952Z,102449.25
2023-04-04T18:56:26.373Z,102443.38
2023-04-04T18:58:53.114Z,102440.25
2023-04-04T19:01:19.644Z,102433.75
2023-04-04T19:03:51.540Z,102478.53
2023-04-04T19:06:18.060Z,102485.66
2023-04-04T19:08:44.615Z,102465.88
2023-04-04T19:11:11.410Z,102462.63
2023-04-04T19:13:38.010Z,102488.50
2023-04-04T19:16:05.076Z,102492.09
2023-04-04T19:18:32.094Z,102474.97
2023-04-04T19:20:58.882Z,102476.94
2023-04-04T19:23:25.872Z,102491.81
2023-04-04T19:25:52.365Z,102485.03
2023-04-04T19:28:18.868Z,102486.22
2023-04-04T19:30:48.240Z,102464.94
2023-04-04T19:33:17.952Z,102484.06
2023-04-04T19:35:56.459Z,102488.69
2023-04-04T19:38:31.949Z,102483.72
2023-04-04T19:41:06.873Z,102477.06
2023-04-04T19:43:33.585Z,102490.47
2023-04-04T19:46:09.906Z,102470.56
2023-04-04T19:48:50.808Z,102477.81
2023-04-04T19:51:20.317Z,102484.13
2023-04-04T19:53:54.638Z,102463.47
2023-04-04T19:56:25.789Z,102451.78
2023-04-04T19:59:02.040Z,102473.47
2023-04-04T20:01:31.672Z,102472.75
2023-04-04T20:04:08.602Z,102454.88
2023-04-04T20:06:36.783Z,102465.28
2023-04-04T20:09:32.687Z,102461.91
2023-04-04T20:12:01.844Z,102460.47
2023-04-04T20:14:28.993Z,102437.28
2023-04-04T20:16:58.387Z,102449.66
2023-04-04T20:19:27.644Z,102432.53
2023-04-04T20:21:54.227Z,102379.41
2023-04-04T20:24:21.703Z,102462.22
2023-04-04T20:26:59.625Z,102424.41
2023-04-04T20:29:34.834Z,102472.19
2023-04-04T20:32:04.284Z,102437.91
2023-04-04T20:34:43.754Z,102451.09
2023-04-04T20:37:11.512Z,102470.16
2023-04-04T20:39:40.504Z,102475.47
2023-04-04T20:42:19.346Z,102474.78
2023-04-04T20:44:46.647Z,102468.94
2023-04-04T20:47:31.597Z,102485.56
2023-04-04T20:49:58.160Z,102472.69
2023-04-04T20:52:24.546Z,102484.97
2023-04-04T20:54:53.264Z,102482.47
2023-04-04T20:57:28.539Z,102486.00
2023-04-04T20:59:54.989Z,102398.97
2023-04-04T21:02:23.690Z,102476.66
2023-04-04T21:04:54.397Z,102474.81
2023-04-04T21:07:40.242Z,102477.41
2023-04-04T21:10:21.874Z,102471.34
2023-04-04T21:12:48.284Z,102474.09
2023-04-04T21:15:29.060Z,102464.47
2023-04-04T21:17:59.175Z,102457.81
2023-04-04T21:20:44.428Z,102469.75
2023-04-04T21:23:37.564Z,102467.34
2023-04-04T21:26:07.205Z,102463.09
2023-04-04T21:28:43.804Z,102451.22
2023-04-04T21:31:13.980Z,102467.72
2023-04-04T21:33:44.877Z,102466.03
2023-04-04T21:36:25.048Z,102460.00
2023-04-04T21:38:52.168Z,102445.44
2023-04-04T21:41:30.041Z,102452.25
2023-04-04T21:44:02.125Z,102441.22
2023-04-04T21:46:32.255Z,102461.22
2023-04-04T21:48:58.826Z,102451.53
2023-04-04T21:51:26.050Z,102435.38
2023-04-04T21:53:52.555Z,102445.66
2023-04-04T21:56:19.675Z,102451.97
2023-04-04T21:58:46.212Z,102452.00
2023-04-04T22:01:13.051Z,102445.19
2023-04-04T22:03:40.658Z,102442.63
2023-04-04T22:06:07.558Z,102461.03
2023-04-04T22:08:34.032Z,102446.19
2023-04-04T22:11:02.207Z,102445.38
2023-04-04T22:13:33.819Z,102428.16
2023-04-04T22:16:01.853Z,102443.75
2023-04-04T22:18:33.282Z,102415.31
2023-04-04T22:21:04.652Z,102438.72
2023-04-04T22:23:38.236Z,102435.19
2023-04-04T22:26:06.261Z,102440.63
2023-04-04T22:28:34.062Z,102420.75
2023-04-04T22:31:01.934Z,102435.41
2023-04-04T22:33:29.676Z,102401.88
2023-04-04T22:35:59.218Z,102412.28
2023-04-04T22:38:26.512Z,102428.63
2023-04-04T22:40:53.261Z,102426.13
2023-04-04T22:43:20.869Z,102412.38
2023-04-04T22:45:47.896Z,102419.16
2023-04-04T22:48:17.474Z,102417.56
2023-04-04T22:50:49.782Z,102426.22
2023-04-04T22:53:24.548Z,102424.53
2023-04-04T22:55:59.777Z,102410.69
2023-04-04T22:58:26.450Z,102415.91
2023-04-04T23:00:52.895Z,102419.50
2023-04-04T23:03:19.923Z,102422.16
2023-04-04T23:05:46.322Z,102411.78
2023-04-04T23:08:12.855Z,102409.28
2023-04-04T23:10:39.700Z,102423.25
2023-04-04T23:13:06.360Z,102417.22
2023-04-04T23:15:35.500Z,102394.81
2023-04-04T23:18:02.473Z,102392.22
2023-04-04T23:20:32.001Z,102421.75
2023-04-04T23:22:58.569Z,102377.56
2023-04-04T23:25:26.352Z,102413.13
2023-04-04T23:27:53.865Z,102374.22
2023-04-04T23:30:23.122Z,102405.53
2023-04-04T23:32:50.353Z,102415.03
2023-04-04T23:35:16.839Z,102415.13
2023-04-04T23:37:43.422Z,102369.47
2023-04-04T23:40:10.487Z,102419.53
2023-04-04T23:42:36.986Z,102394.53
2023-04-04T23:45:04.643Z,102415.16
2023-04-04T23:47:31.196Z,102419.53
2023-04-04T23:49:57.730Z,102416.13
2023-04-04T23:52:24.214Z,102415.16
2023-04-04T23:54:50.859Z,102408.28
2023-04-04T23:57:17.369Z,102410.03
2023-04-04T23:59:43.841Z,102411.81
